sensor_id;sensor_type;location;lat;lon;timestamp;P1;durP1;ratioP1;P2;durP2;ratioP2
3597;SDS011;1813;52.016;8.714;2023-05-03T00:00:48;7.70;;;3.60;;
3597;SDS011;1813;52.016;8.714;2023-05-03T00:03:22;7.40;;;3.60;;
3597;SDS011;1813;52.016;8.714;2023-05-03T00:05:56;5.80;;;3.90;;
3597;SDS011;1813;52.016;8.714;2023-05-03T00:08:30;6.40;;;4.00;;
3597;SDS011;1813;52.016;8.714;2023-05-03T00:11:04;6.30;;;3.83;;
3597;SDS011;1813;52.016;8.714;2023-05-03T00:13:42;5.77;;;4.03;;
3597;SDS011;1813;52.016;8.714;2023-05-03T00:16:17;8.73;;;4.07;;
3597;SDS011;1813;52.016;8.714;2023-05-03T00:18:52;8.93;;;4.20;;
3597;SDS011;1813;52.016;8.714;2023-05-03T00:21:26;9.87;;;4.60;;
3597;SDS011;1813;52.016;8.714;2023-05-03T00:24:01;7.97;;;4.20;;
3597;SDS011;1813;52.016;8.714;2023-05-03T00:26:35;10.20;;;4.20;;
3597;SDS011;1813;52.016;8.714;2023-05-03T00:29:12;8.00;;;4.10;;
3597;SDS011;1813;52.016;8.714;2023-05-03T00:31:48;5.03;;;3.60;;
3597;SDS011;1813;52.016;8.714;2023-05-03T00:34:22;10.10;;;4.00;;
3597;SDS011;1813;52.016;8.714;2023-05-03T00:36:58;5.33;;;4.03;;
3597;SDS011;1813;52.016;8.714;2023-05-03T00:39:34;9.47;;;4.70;;
3597;SDS011;1813;52.016;8.714;2023-05-03T00:42:08;13.87;;;4.27;;
3597;SDS011;1813;52.016;8.714;2023-05-03T00:44:46;9.73;;;4.20;;
3597;SDS011;1813;52.016;8.714;2023-05-03T00:47:20;11.50;;;4.30;;
3597;SDS011;1813;52.016;8.714;2023-05-03T00:49:55;8.67;;;4.40;;
3597;SDS011;1813;52.016;8.714;2023-05-03T00:52:29;12.60;;;4.90;;
3597;SDS011;1813;52.016;8.714;2023-05-03T00:55:06;10.17;;;4.67;;
3597;SDS011;1813;52.016;8.714;2023-05-03T00:57:42;9.10;;;5.00;;
3597;SDS011;1813;52.016;8.714;2023-05-03T01:00:19;10.90;;;5.30;;
3597;SDS011;1813;52.016;8.714;2023-05-03T01:02:53;9.40;;;5.30;;
3597;SDS011;1813;52.016;8.714;2023-05-03T01:05:28;7.93;;;5.17;;
3597;SDS011;1813;52.016;8.714;2023-05-03T01:08:10;10.77;;;5.03;;
3597;SDS011;1813;52.016;8.714;2023-05-03T01:10:50;10.87;;;4.97;;
3597;SDS011;1813;52.016;8.714;2023-05-03T01:13:32;6.20;;;4.60;;
3597;SDS011;1813;52.016;8.714;2023-05-03T01:16:19;7.87;;;4.93;;
3597;SDS011;1813;52.016;8.714;2023-05-03T01:18:59;7.90;;;4.60;;
3597;SDS011;1813;52.016;8.714;2023-05-03T01:21:37;9.10;;;5.00;;
3597;SDS011;1813;52.016;8.714;2023-05-03T01:24:16;6.97;;;4.70;;
3597;SDS011;1813;52.016;8.714;2023-05-03T01:26:58;9.20;;;4.97;;
3597;SDS011;1813;52.016;8.714;2023-05-03T01:29:32;9.00;;;4.50;;
3597;SDS011;1813;52.016;8.714;2023-05-03T01:32:08;6.57;;;4.13;;
3597;SDS011;1813;52.016;8.714;2023-05-03T01:34:50;7.63;;;4.77;;
3597;SDS011;1813;52.016;8.714;2023-05-03T01:37:27;8.37;;;5.60;;
3597;SDS011;1813;52.016;8.714;2023-05-03T01:40:03;11.00;;;5.37;;
3597;SDS011;1813;52.016;8.714;2023-05-03T01:42:42;7.37;;;4.70;;
3597;SDS011;1813;52.016;8.714;2023-05-03T01:45:18;5.30;;;4.20;;
3597;SDS011;1813;52.016;8.714;2023-05-03T01:47:54;9.73;;;5.73;;
3597;SDS011;1813;52.016;8.714;2023-05-03T01:50:29;9.50;;;5.10;;
3597;SDS011;1813;52.016;8.714;2023-05-03T01:53:03;11.93;;;5.93;;
3597;SDS011;1813;52.016;8.714;2023-05-03T01:55:37;8.40;;;5.20;;
3597;SDS011;1813;52.016;8.714;2023-05-03T01:58:14;10.30;;;6.30;;
3597;SDS011;1813;52.016;8.714;2023-05-03T02:00:48;16.13;;;6.83;;
3597;SDS011;1813;52.016;8.714;2023-05-03T02:03:22;11.00;;;6.10;;
3597;SDS011;1813;52.016;8.714;2023-05-03T02:05:56;12.67;;;6.60;;
3597;SDS011;1813;52.016;8.714;2023-05-03T02:08:32;10.47;;;6.43;;
3597;SDS011;1813;52.016;8.714;2023-05-03T02:11:07;9.20;;;5.83;;
3597;SDS011;1813;52.016;8.714;2023-05-03T02:13:44;8.10;;;5.97;;
3597;SDS011;1813;52.016;8.714;2023-05-03T02:16:21;8.93;;;5.10;;
3597;SDS011;1813;52.016;8.714;2023-05-03T02:18:55;7.77;;;5.50;;
3597;SDS011;1813;52.016;8.714;2023-05-03T02:21:30;9.00;;;5.70;;
3597;SDS011;1813;52.016;8.714;2023-05-03T02:24:06;10.63;;;5.80;;
3597;SDS011;1813;52.016;8.714;2023-05-03T02:26:40;13.03;;;6.40;;
3597;SDS011;1813;52.016;8.714;2023-05-03T02:29:18;9.10;;;5.90;;
3597;SDS011;1813;52.016;8.714;2023-05-03T02:31:53;10.97;;;6.20;;
3597;SDS011;1813;52.016;8.714;2023-05-03T02:34:27;12.43;;;6.80;;
3597;SDS011;1813;52.016;8.714;2023-05-03T02:37:01;11.97;;;6.53;;
3597;SDS011;1813;52.016;8.714;2023-05-03T02:39:37;10.80;;;6.70;;
3597;SDS011;1813;52.016;8.714;2023-05-03T02:42:12;9.30;;;6.43;;
3597;SDS011;1813;52.016;8.714;2023-05-03T02:44:51;9.77;;;6.33;;
3597;SDS011;1813;52.016;8.714;2023-05-03T02:47:25;13.40;;;6.50;;
3597;SDS011;1813;52.016;8.714;2023-05-03T02:49:59;14.60;;;6.47;;
3597;SDS011;1813;52.016;8.714;2023-05-03T02:52:39;14.60;;;5.67;;
3597;SDS011;1813;52.016;8.714;2023-05-03T02:55:13;12.70;;;6.40;;
3597;SDS011;1813;52.016;8.714;2023-05-03T02:57:50;12.20;;;6.20;;
3597;SDS011;1813;52.016;8.714;2023-05-03T03:00:27;10.20;;;6.63;;
3597;SDS011;1813;52.016;8.714;2023-05-03T03:03:02;10.47;;;6.63;;
3597;SDS011;1813;52.016;8.714;2023-05-03T03:05:37;10.50;;;6.57;;
3597;SDS011;1813;52.016;8.714;2023-05-03T03:08:11;11.20;;;5.73;;
3597;SDS011;1813;52.016;8.714;2023-05-03T03:10:45;8.33;;;5.83;;
3597;SDS011;1813;52.016;8.714;2023-05-03T03:13:20;9.20;;;5.77;;
3597;SDS011;1813;52.016;8.714;2023-05-03T03:15:57;12.37;;;6.10;;
3597;SDS011;1813;52.016;8.714;2023-05-03T03:18:31;12.13;;;6.50;;
3597;SDS011;1813;52.016;8.714;2023-05-03T03:21:06;7.57;;;5.60;;
3597;SDS011;1813;52.016;8.714;2023-05-03T03:23:42;9.50;;;6.10;;
3597;SDS011;1813;52.016;8.714;2023-05-03T03:26:16;11.50;;;6.37;;
3597;SDS011;1813;52.016;8.714;2023-05-03T03:28:51;11.53;;;6.53;;
3597;SDS011;1813;52.016;8.714;2023-05-03T03:31:28;9.60;;;5.83;;
3597;SDS011;1813;52.016;8.714;2023-05-03T03:34:02;7.37;;;5.17;;
3597;SDS011;1813;52.016;8.714;2023-05-03T03:36:37;9.23;;;5.50;;
3597;SDS011;1813;52.016;8.714;2023-05-03T03:39:11;10.00;;;5.90;;
3597;SDS011;1813;52.016;8.714;2023-05-03T03:41:46;7.60;;;6.17;;
3597;SDS011;1813;52.016;8.714;2023-05-03T03:44:21;13.03;;;6.60;;
3597;SDS011;1813;52.016;8.714;2023-05-03T03:46:58;9.07;;;5.60;;
3597;SDS011;1813;52.016;8.714;2023-05-03T03:49:33;11.57;;;6.00;;
3597;SDS011;1813;52.016;8.714;2023-05-03T03:52:07;11.50;;;6.63;;
3597;SDS011;1813;52.016;8.714;2023-05-03T03:54:41;10.70;;;6.60;;
3597;SDS011;1813;52.016;8.714;2023-05-03T03:57:16;11.53;;;7.37;;
3597;SDS011;1813;52.016;8.714;2023-05-03T03:59:51;14.93;;;7.77;;
3597;SDS011;1813;52.016;8.714;2023-05-03T04:02:28;11.20;;;7.00;;
3597;SDS011;1813;52.016;8.714;2023-05-03T04:05:02;11.33;;;7.83;;
3597;SDS011;1813;52.016;8.714;2023-05-03T04:07:37;13.60;;;7.43;;
3597;SDS011;1813;52.016;8.714;2023-05-03T04:10:13;15.43;;;7.70;;
3597;SDS011;1813;52.016;8.714;2023-05-03T04:12:47;11.60;;;7.03;;
3597;SDS011;1813;52.016;8.714;2023-05-03T04:15:23;10.80;;;7.00;;
3597;SDS011;1813;52.016;8.714;2023-05-03T04:18:04;9.27;;;6.70;;
3597;SDS011;1813;52.016;8.714;2023-05-03T04:20:42;10.80;;;6.70;;
3597;SDS011;1813;52.016;8.714;2023-05-03T04:23:18;10.57;;;7.80;;
3597;SDS011;1813;52.016;8.714;2023-05-03T04:25:53;11.40;;;8.27;;
3597;SDS011;1813;52.016;8.714;2023-05-03T04:28:29;18.53;;;8.37;;
3597;SDS011;1813;52.016;8.714;2023-05-03T04:31:03;15.60;;;9.30;;
3597;SDS011;1813;52.016;8.714;2023-05-03T04:33:42;16.63;;;9.20;;
3597;SDS011;1813;52.016;8.714;2023-05-03T04:36:16;12.63;;;9.13;;
3597;SDS011;1813;52.016;8.714;2023-05-03T04:38:55;17.27;;;9.57;;
3597;SDS011;1813;52.016;8.714;2023-05-03T04:41:30;18.13;;;9.33;;
3597;SDS011;1813;52.016;8.714;2023-05-03T04:44:05;15.03;;;9.83;;
3597;SDS011;1813;52.016;8.714;2023-05-03T04:46:40;18.23;;;9.33;;
3597;SDS011;1813;52.016;8.714;2023-05-03T04:49:22;18.50;;;9.50;;
3597;SDS011;1813;52.016;8.714;2023-05-03T04:51:56;14.57;;;9.50;;
3597;SDS011;1813;52.016;8.714;2023-05-03T04:54:31;22.20;;;9.87;;
3597;SDS011;1813;52.016;8.714;2023-05-03T04:57:06;17.23;;;8.80;;
3597;SDS011;1813;52.016;8.714;2023-05-03T04:59:40;16.70;;;9.13;;
3597;SDS011;1813;52.016;8.714;2023-05-03T05:02:15;21.30;;;9.50;;
3597;SDS011;1813;52.016;8.714;2023-05-03T05:04:52;17.70;;;8.80;;
3597;SDS011;1813;52.016;8.714;2023-05-03T05:07:27;14.97;;;9.13;;
3597;SDS011;1813;52.016;8.714;2023-05-03T05:10:02;12.60;;;8.87;;
3597;SDS011;1813;52.016;8.714;2023-05-03T05:12:36;18.63;;;9.60;;
3597;SDS011;1813;52.016;8.714;2023-05-03T05:15:11;18.47;;;9.50;;
3597;SDS011;1813;52.016;8.714;2023-05-03T05:17:45;18.37;;;10.30;;
3597;SDS011;1813;52.016;8.714;2023-05-03T05:20:25;17.30;;;9.50;;
3597;SDS011;1813;52.016;8.714;2023-05-03T05:23:01;14.07;;;9.07;;
3597;SDS011;1813;52.016;8.714;2023-05-03T05:25:36;15.00;;;8.30;;
3597;SDS011;1813;52.016;8.714;2023-05-03T05:28:11;12.53;;;8.70;;
3597;SDS011;1813;52.016;8.714;2023-05-03T05:30:45;14.33;;;7.97;;
3597;SDS011;1813;52.016;8.714;2023-05-03T05:33:21;17.50;;;8.80;;
3597;SDS011;1813;52.016;8.714;2023-05-03T05:35:59;20.63;;;9.30;;
3597;SDS011;1813;52.016;8.714;2023-05-03T05:38:35;16.83;;;8.53;;
3597;SDS011;1813;52.016;8.714;2023-05-03T05:41:09;14.17;;;9.63;;
3597;SDS011;1813;52.016;8.714;2023-05-03T05:43:46;19.47;;;8.93;;
3597;SDS011;1813;52.016;8.714;2023-05-03T05:46:21;20.53;;;8.90;;
3597;SDS011;1813;52.016;8.714;2023-05-03T05:48:57;14.10;;;9.30;;
3597;SDS011;1813;52.016;8.714;2023-05-03T05:51:35;14.50;;;9.57;;
3597;SDS011;1813;52.016;8.714;2023-05-03T05:54:09;15.70;;;10.13;;
3597;SDS011;1813;52.016;8.714;2023-05-03T05:56:43;19.53;;;9.97;;
3597;SDS011;1813;52.016;8.714;2023-05-03T05:59:18;15.87;;;9.63;;
3597;SDS011;1813;52.016;8.714;2023-05-03T06:01:52;16.00;;;9.27;;
3597;SDS011;1813;52.016;8.714;2023-05-03T06:04:27;14.03;;;8.70;;
3597;SDS011;1813;52.016;8.714;2023-05-03T06:07:08;16.20;;;9.30;;
3597;SDS011;1813;52.016;8.714;2023-05-03T06:09:42;16.27;;;9.00;;
3597;SDS011;1813;52.016;8.714;2023-05-03T06:12:17;18.00;;;9.43;;
3597;SDS011;1813;52.016;8.714;2023-05-03T06:14:51;16.87;;;9.80;;
3597;SDS011;1813;52.016;8.714;2023-05-03T06:17:27;14.10;;;9.30;;
3597;SDS011;1813;52.016;8.714;2023-05-03T06:20:01;15.20;;;8.97;;
3597;SDS011;1813;52.016;8.714;2023-05-03T06:22:39;15.80;;;8.70;;
3597;SDS011;1813;52.016;8.714;2023-05-03T06:25:15;16.93;;;8.87;;
3597;SDS011;1813;52.016;8.714;2023-05-03T06:27:52;12.07;;;7.63;;
3597;SDS011;1813;52.016;8.714;2023-05-03T06:30:30;13.83;;;8.50;;
3597;SDS011;1813;52.016;8.714;2023-05-03T06:33:12;12.40;;;7.33;;
3597;SDS011;1813;52.016;8.714;2023-05-03T06:35:49;18.67;;;8.23;;
3597;SDS011;1813;52.016;8.714;2023-05-03T06:38:27;12.53;;;7.60;;
3597;SDS011;1813;52.016;8.714;2023-05-03T06:41:01;17.50;;;7.07;;
3597;SDS011;1813;52.016;8.714;2023-05-03T06:43:35;23.43;;;7.67;;
3597;SDS011;1813;52.016;8.714;2023-05-03T06:46:10;11.07;;;6.53;;
3597;SDS011;1813;52.016;8.714;2023-05-03T06:48:44;10.53;;;6.70;;
3597;SDS011;1813;52.016;8.714;2023-05-03T06:51:19;10.23;;;5.93;;
3597;SDS011;1813;52.016;8.714;2023-05-03T06:54:01;12.33;;;5.80;;
3597;SDS011;1813;52.016;8.714;2023-05-03T06:56:36;12.23;;;6.27;;
3597;SDS011;1813;52.016;8.714;2023-05-03T06:59:10;19.90;;;6.27;;
3597;SDS011;1813;52.016;8.714;2023-05-03T07:01:48;12.97;;;5.63;;
3597;SDS011;1813;52.016;8.714;2023-05-03T07:04:23;11.50;;;5.63;;
3597;SDS011;1813;52.016;8.714;2023-05-03T07:06:59;13.07;;;6.10;;
3597;SDS011;1813;52.016;8.714;2023-05-03T07:09:36;10.83;;;5.60;;
3597;SDS011;1813;52.016;8.714;2023-05-03T07:12:10;8.47;;;5.07;;
3597;SDS011;1813;52.016;8.714;2023-05-03T07:14:44;15.23;;;5.33;;
3597;SDS011;1813;52.016;8.714;2023-05-03T07:17:18;10.40;;;5.40;;
3597;SDS011;1813;52.016;8.714;2023-05-03T07:19:53;15.97;;;5.40;;
3597;SDS011;1813;52.016;8.714;2023-05-03T07:22:27;25.37;;;5.37;;
3597;SDS011;1813;52.016;8.714;2023-05-03T07:25:04;10.10;;;4.50;;
3597;SDS011;1813;52.016;8.714;2023-05-03T07:27:38;11.27;;;4.23;;
3597;SDS011;1813;52.016;8.714;2023-05-03T07:30:13;12.63;;;4.67;;
3597;SDS011;1813;52.016;8.714;2023-05-03T07:32:47;8.77;;;4.53;;
3597;SDS011;1813;52.016;8.714;2023-05-03T07:35:22;9.50;;;4.63;;
3597;SDS011;1813;52.016;8.714;2023-05-03T07:37:58;8.40;;;4.60;;
3597;SDS011;1813;52.016;8.714;2023-05-03T07:40:35;6.87;;;4.60;;
3597;SDS011;1813;52.016;8.714;2023-05-03T07:43:09;10.03;;;3.30;;
3597;SDS011;1813;52.016;8.714;2023-05-03T07:45:43;5.03;;;2.87;;
3597;SDS011;1813;52.016;8.714;2023-05-03T07:48:17;13.30;;;4.03;;
3597;SDS011;1813;52.016;8.714;2023-05-03T07:50:52;6.50;;;2.97;;
3597;SDS011;1813;52.016;8.714;2023-05-03T07:53:28;5.50;;;2.97;;
3597;SDS011;1813;52.016;8.714;2023-05-03T07:56:07;11.90;;;3.93;;
3597;SDS011;1813;52.016;8.714;2023-05-03T07:58:42;7.00;;;3.60;;
3597;SDS011;1813;52.016;8.714;2023-05-03T08:01:16;7.00;;;3.37;;
3597;SDS011;1813;52.016;8.714;2023-05-03T08:03:51;8.30;;;4.03;;
3597;SDS011;1813;52.016;8.714;2023-05-03T08:06:25;8.57;;;3.90;;
3597;SDS011;1813;52.016;8.714;2023-05-03T08:09:02;9.10;;;4.13;;
3597;SDS011;1813;52.016;8.714;2023-05-03T08:11:41;7.77;;;4.00;;
3597;SDS011;1813;52.016;8.714;2023-05-03T08:14:15;9.60;;;4.30;;
3597;SDS011;1813;52.016;8.714;2023-05-03T08:16:50;9.47;;;4.33;;
3597;SDS011;1813;52.016;8.714;2023-05-03T08:19:24;12.83;;;4.80;;
3597;SDS011;1813;52.016;8.714;2023-05-03T08:21:58;11.63;;;4.60;;
3597;SDS011;1813;52.016;8.714;2023-05-03T08:24:32;11.23;;;4.90;;
3597;SDS011;1813;52.016;8.714;2023-05-03T08:27:10;9.67;;;5.00;;
3597;SDS011;1813;52.016;8.714;2023-05-03T08:29:44;6.90;;;3.90;;
3597;SDS011;1813;52.016;8.714;2023-05-03T08:32:18;9.47;;;4.10;;
3597;SDS011;1813;52.016;8.714;2023-05-03T08:34:56;9.10;;;4.20;;
3597;SDS011;1813;52.016;8.714;2023-05-03T08:37:36;9.03;;;4.20;;
3597;SDS011;1813;52.016;8.714;2023-05-03T08:40:12;8.73;;;3.90;;
3597;SDS011;1813;52.016;8.714;2023-05-03T08:42:49;12.83;;;4.10;;
3597;SDS011;1813;52.016;8.714;2023-05-03T08:45:23;6.60;;;3.80;;
3597;SDS011;1813;52.016;8.714;2023-05-03T08:47:58;7.90;;;3.73;;
3597;SDS011;1813;52.016;8.714;2023-05-03T08:50:33;8.17;;;3.60;;
3597;SDS011;1813;52.016;8.714;2023-05-03T08:53:11;6.73;;;3.53;;
3597;SDS011;1813;52.016;8.714;2023-05-03T08:55:47;9.50;;;3.60;;
3597;SDS011;1813;52.016;8.714;2023-05-03T08:58:24;10.90;;;3.90;;
3597;SDS011;1813;52.016;8.714;2023-05-03T09:01:01;6.83;;;3.43;;
3597;SDS011;1813;52.016;8.714;2023-05-03T09:03:39;8.10;;;3.70;;
3597;SDS011;1813;52.016;8.714;2023-05-03T09:06:21;13.30;;;4.40;;
3597;SDS011;1813;52.016;8.714;2023-05-03T09:08:58;8.03;;;3.60;;
3597;SDS011;1813;52.016;8.714;2023-05-03T09:11:35;8.17;;;3.97;;
3597;SDS011;1813;52.016;8.714;2023-05-03T09:14:13;6.20;;;3.20;;
3597;SDS011;1813;52.016;8.714;2023-05-03T09:16:50;9.23;;;3.50;;
3597;SDS011;1813;52.016;8.714;2023-05-03T09:19:28;12.13;;;3.40;;
3597;SDS011;1813;52.016;8.714;2023-05-03T09:22:05;6.70;;;3.30;;
3597;SDS011;1813;52.016;8.714;2023-05-03T09:24:47;9.70;;;3.27;;
3597;SDS011;1813;52.016;8.714;2023-05-03T09:27:24;8.07;;;3.30;;
3597;SDS011;1813;52.016;8.714;2023-05-03T09:30:05;7.47;;;3.57;;
3597;SDS011;1813;52.016;8.714;2023-05-03T09:32:50;5.10;;;3.03;;
3597;SDS011;1813;52.016;8.714;2023-05-03T09:35:24;5.20;;;3.40;;
3597;SDS011;1813;52.016;8.714;2023-05-03T09:38:01;11.83;;;4.23;;
3597;SDS011;1813;52.016;8.714;2023-05-03T09:40:44;7.37;;;3.80;;
3597;SDS011;1813;52.016;8.714;2023-05-03T09:43:19;10.70;;;3.53;;
3597;SDS011;1813;52.016;8.714;2023-05-03T09:46:05;8.63;;;3.40;;
3597;SDS011;1813;52.016;8.714;2023-05-03T09:48:41;8.63;;;4.20;;
3597;SDS011;1813;52.016;8.714;2023-05-03T09:51:16;8.97;;;5.10;;
3597;SDS011;1813;52.016;8.714;2023-05-03T09:53:52;5.83;;;3.17;;
3597;SDS011;1813;52.016;8.714;2023-05-03T09:56:28;9.53;;;3.40;;
3597;SDS011;1813;52.016;8.714;2023-05-03T09:59:04;7.70;;;3.20;;
3597;SDS011;1813;52.016;8.714;2023-05-03T10:01:41;7.23;;;3.53;;
3597;SDS011;1813;52.016;8.714;2023-05-03T10:04:16;11.33;;;3.37;;
3597;SDS011;1813;52.016;8.714;2023-05-03T10:06:56;9.00;;;3.60;;
3597;SDS011;1813;52.016;8.714;2023-05-03T10:09:33;8.07;;;3.57;;
3597;SDS011;1813;52.016;8.714;2023-05-03T10:12:11;7.77;;;3.50;;
3597;SDS011;1813;52.016;8.714;2023-05-03T10:14:48;8.00;;;4.00;;
3597;SDS011;1813;52.016;8.714;2023-05-03T10:17:30;9.93;;;3.53;;
3597;SDS011;1813;52.016;8.714;2023-05-03T10:20:11;4.60;;;2.97;;
3597;SDS011;1813;52.016;8.714;2023-05-03T10:23:06;6.23;;;3.23;;
3597;SDS011;1813;52.016;8.714;2023-05-03T10:28:48;6.87;;;3.43;;
3597;SDS011;1813;52.016;8.714;2023-05-03T10:34:24;8.37;;;3.27;;
3597;SDS011;1813;52.016;8.714;2023-05-03T10:49:15;7.33;;;3.83;;
3597;SDS011;1813;52.016;8.714;2023-05-03T10:51:53;10.20;;;4.03;;
3597;SDS011;1813;52.016;8.714;2023-05-03T10:54:27;6.63;;;3.50;;
3597;SDS011;1813;52.016;8.714;2023-05-03T10:57:00;10.27;;;3.60;;
3597;SDS011;1813;52.016;8.714;2023-05-03T10:59:44;6.60;;;3.90;;
3597;SDS011;1813;52.016;8.714;2023-05-03T11:02:21;5.90;;;3.60;;
3597;SDS011;1813;52.016;8.714;2023-05-03T11:05:04;8.40;;;3.60;;
3597;SDS011;1813;52.016;8.714;2023-05-03T11:07:47;10.67;;;3.90;;
3597;SDS011;1813;52.016;8.714;2023-05-03T11:10:20;6.90;;;3.93;;
3597;SDS011;1813;52.016;8.714;2023-05-03T11:12:54;9.63;;;3.90;;
3597;SDS011;1813;52.016;8.714;2023-05-03T11:15:28;10.50;;;4.40;;
3597;SDS011;1813;52.016;8.714;2023-05-03T11:18:02;11.00;;;3.90;;
3597;SDS011;1813;52.016;8.714;2023-05-03T11:20:38;11.80;;;4.03;;
3597;SDS011;1813;52.016;8.714;2023-05-03T11:23:15;11.73;;;5.67;;
3597;SDS011;1813;52.016;8.714;2023-05-03T11:25:50;14.67;;;8.07;;
3597;SDS011;1813;52.016;8.714;2023-05-03T11:28:24;11.60;;;3.97;;
3597;SDS011;1813;52.016;8.714;2023-05-03T11:30:58;5.20;;;3.83;;
3597;SDS011;1813;52.016;8.714;2023-05-03T11:33:32;8.03;;;3.93;;
3597;SDS011;1813;52.016;8.714;2023-05-03T11:36:07;6.20;;;3.70;;
3597;SDS011;1813;52.016;8.714;2023-05-03T11:38:45;7.17;;;4.23;;
3597;SDS011;1813;52.016;8.714;2023-05-03T11:41:19;8.97;;;4.27;;
3597;SDS011;1813;52.016;8.714;2023-05-03T11:43:53;5.13;;;4.20;;
3597;SDS011;1813;52.016;8.714;2023-05-03T11:46:27;7.50;;;3.63;;
3597;SDS011;1813;52.016;8.714;2023-05-03T11:49:05;7.33;;;4.27;;
3597;SDS011;1813;52.016;8.714;2023-05-03T11:51:39;5.33;;;3.67;;
3597;SDS011;1813;52.016;8.714;2023-05-03T11:54:16;5.93;;;3.67;;
3597;SDS011;1813;52.016;8.714;2023-05-03T11:56:50;9.50;;;3.70;;
3597;SDS011;1813;52.016;8.714;2023-05-03T11:59:33;7.00;;;3.90;;
3597;SDS011;1813;52.016;8.714;2023-05-03T12:02:08;6.10;;;3.30;;
3597;SDS011;1813;52.016;8.714;2023-05-03T12:04:44;6.73;;;3.93;;
3597;SDS011;1813;52.016;8.714;2023-05-03T12:07:18;11.77;;;4.10;;
3597;SDS011;1813;52.016;8.714;2023-05-03T12:09:54;7.50;;;4.30;;
3597;SDS011;1813;52.016;8.714;2023-05-03T12:12:28;6.93;;;3.87;;
3597;SDS011;1813;52.016;8.714;2023-05-03T12:15:02;7.47;;;3.97;;
3597;SDS011;1813;52.016;8.714;2023-05-03T12:17:36;6.23;;;3.93;;
3597;SDS011;1813;52.016;8.714;2023-05-03T12:20:12;6.47;;;3.90;;
3597;SDS011;1813;52.016;8.714;2023-05-03T12:22:47;7.50;;;4.00;;
3597;SDS011;1813;52.016;8.714;2023-05-03T12:25:24;5.63;;;3.70;;
3597;SDS011;1813;52.016;8.714;2023-05-03T12:27:59;7.40;;;4.03;;
3597;SDS011;1813;52.016;8.714;2023-05-03T12:30:34;7.73;;;3.83;;
3597;SDS011;1813;52.016;8.714;2023-05-03T12:33:08;9.70;;;4.17;;
3597;SDS011;1813;52.016;8.714;2023-05-03T12:35:42;10.67;;;4.40;;
3597;SDS011;1813;52.016;8.714;2023-05-03T12:38:16;19.47;;;4.53;;
3597;SDS011;1813;52.016;8.714;2023-05-03T12:40:52;7.83;;;3.90;;
3597;SDS011;1813;52.016;8.714;2023-05-03T12:43:27;11.80;;;4.60;;
3597;SDS011;1813;52.016;8.714;2023-05-03T12:46:00;8.30;;;4.33;;
3597;SDS011;1813;52.016;8.714;2023-05-03T12:48:34;6.93;;;4.10;;
3597;SDS011;1813;52.016;8.714;2023-05-03T12:51:08;12.03;;;5.00;;
3597;SDS011;1813;52.016;8.714;2023-05-03T12:53:41;8.53;;;4.00;;
3597;SDS011;1813;52.016;8.714;2023-05-03T12:56:18;7.07;;;4.17;;
3597;SDS011;1813;52.016;8.714;2023-05-03T12:58:53;6.80;;;4.53;;
3597;SDS011;1813;52.016;8.714;2023-05-03T13:01:28;8.70;;;4.27;;
3597;SDS011;1813;52.016;8.714;2023-05-03T13:04:18;8.67;;;3.90;;
3597;SDS011;1813;52.016;8.714;2023-05-03T13:06:52;6.87;;;3.73;;
3597;SDS011;1813;52.016;8.714;2023-05-03T13:09:39;7.03;;;3.83;;
3597;SDS011;1813;52.016;8.714;2023-05-03T13:15:02;8.87;;;4.00;;
3597;SDS011;1813;52.016;8.714;2023-05-03T13:17:36;8.77;;;4.57;;
3597;SDS011;1813;52.016;8.714;2023-05-03T13:20:10;8.80;;;3.97;;
3597;SDS011;1813;52.016;8.714;2023-05-03T13:22:45;10.63;;;4.87;;
3597;SDS011;1813;52.016;8.714;2023-05-03T13:25:20;6.80;;;4.60;;
3597;SDS011;1813;52.016;8.714;2023-05-03T13:27:57;12.77;;;6.50;;
3597;SDS011;1813;52.016;8.714;2023-05-03T13:30:32;10.27;;;3.97;;
3597;SDS011;1813;52.016;8.714;2023-05-03T13:33:06;6.53;;;3.60;;
3597;SDS011;1813;52.016;8.714;2023-05-03T13:35:40;10.40;;;3.87;;
3597;SDS011;1813;52.016;8.714;2023-05-03T13:38:14;7.03;;;3.90;;
3597;SDS011;1813;52.016;8.714;2023-05-03T13:40:47;8.87;;;4.10;;
3597;SDS011;1813;52.016;8.714;2023-05-03T13:43:24;7.40;;;3.73;;
3597;SDS011;1813;52.016;8.714;2023-05-03T13:46:02;8.17;;;3.80;;
3597;SDS011;1813;52.016;8.714;2023-05-03T13:48:35;9.83;;;4.30;;
3597;SDS011;1813;52.016;8.714;2023-05-03T13:51:11;6.77;;;4.30;;
3597;SDS011;1813;52.016;8.714;2023-05-03T13:53:45;12.93;;;4.70;;
3597;SDS011;1813;52.016;8.714;2023-05-03T13:56:19;12.50;;;4.10;;
3597;SDS011;1813;52.016;8.714;2023-05-03T13:59:33;6.00;;;4.10;;
3597;SDS011;1813;52.016;8.714;2023-05-03T14:02:07;6.90;;;4.00;;
3597;SDS011;1813;52.016;8.714;2023-05-03T14:04:41;4.80;;;3.80;;
3597;SDS011;1813;52.016;8.714;2023-05-03T14:07:15;9.10;;;4.10;;
3597;SDS011;1813;52.016;8.714;2023-05-03T14:09:49;6.77;;;4.00;;
3597;SDS011;1813;52.016;8.714;2023-05-03T14:12:23;12.13;;;4.40;;
3597;SDS011;1813;52.016;8.714;2023-05-03T14:15:05;7.30;;;4.40;;
3597;SDS011;1813;52.016;8.714;2023-05-03T14:17:45;12.77;;;4.57;;
3597;SDS011;1813;52.016;8.714;2023-05-03T14:20:19;11.97;;;4.77;;
3597;SDS011;1813;52.016;8.714;2023-05-03T14:22:53;10.43;;;4.50;;
3597;SDS011;1813;52.016;8.714;2023-05-03T14:25:26;11.07;;;5.10;;
3597;SDS011;1813;52.016;8.714;2023-05-03T14:28:01;6.87;;;4.33;;
3597;SDS011;1813;52.016;8.714;2023-05-03T14:30:37;6.20;;;4.40;;
3597;SDS011;1813;52.016;8.714;2023-05-03T14:33:11;12.00;;;4.70;;
3597;SDS011;1813;52.016;8.714;2023-05-03T14:35:45;10.50;;;4.97;;
3597;SDS011;1813;52.016;8.714;2023-05-03T14:38:18;9.43;;;4.60;;
3597;SDS011;1813;52.016;8.714;2023-05-03T14:40:52;8.83;;;4.70;;
3597;SDS011;1813;52.016;8.714;2023-05-03T14:43:27;8.37;;;4.67;;
3597;SDS011;1813;52.016;8.714;2023-05-03T14:46:03;11.50;;;4.97;;
3597;SDS011;1813;52.016;8.714;2023-05-03T14:48:37;9.10;;;5.07;;
3597;SDS011;1813;52.016;8.714;2023-05-03T14:51:14;9.60;;;4.80;;
3597;SDS011;1813;52.016;8.714;2023-05-03T14:53:48;9.50;;;5.13;;
3597;SDS011;1813;52.016;8.714;2023-05-03T14:56:22;10.83;;;5.10;;
3597;SDS011;1813;52.016;8.714;2023-05-03T14:58:56;9.27;;;5.13;;
3597;SDS011;1813;52.016;8.714;2023-05-03T15:01:33;8.27;;;5.27;;
3597;SDS011;1813;52.016;8.714;2023-05-03T15:04:08;10.90;;;5.00;;
3597;SDS011;1813;52.016;8.714;2023-05-03T15:06:41;9.70;;;4.90;;
3597;SDS011;1813;52.016;8.714;2023-05-03T15:09:15;7.60;;;4.83;;
3597;SDS011;1813;52.016;8.714;2023-05-03T15:11:49;7.63;;;5.20;;
3597;SDS011;1813;52.016;8.714;2023-05-03T15:14:23;9.43;;;5.43;;
3597;SDS011;1813;52.016;8.714;2023-05-03T15:16:59;7.67;;;5.00;;
3597;SDS011;1813;52.016;8.714;2023-05-03T15:19:33;6.23;;;4.23;;
3597;SDS011;1813;52.016;8.714;2023-05-03T15:22:07;14.13;;;5.27;;
3597;SDS011;1813;52.016;8.714;2023-05-03T15:24:40;7.73;;;4.83;;
3597;SDS011;1813;52.016;8.714;2023-05-03T15:27:16;12.00;;;4.93;;
3597;SDS011;1813;52.016;8.714;2023-05-03T15:29:50;7.90;;;4.63;;
3597;SDS011;1813;52.016;8.714;2023-05-03T15:32:26;6.87;;;4.90;;
3597;SDS011;1813;52.016;8.714;2023-05-03T15:35:00;8.27;;;4.40;;
3597;SDS011;1813;52.016;8.714;2023-05-03T15:37:35;9.67;;;4.90;;
3597;SDS011;1813;52.016;8.714;2023-05-03T15:40:12;10.20;;;5.80;;
3597;SDS011;1813;52.016;8.714;2023-05-03T15:42:46;6.67;;;5.17;;
3597;SDS011;1813;52.016;8.714;2023-05-03T15:45:20;11.67;;;5.23;;
3597;SDS011;1813;52.016;8.714;2023-05-03T15:47:58;9.30;;;4.73;;
3597;SDS011;1813;52.016;8.714;2023-05-03T15:50:32;12.70;;;5.23;;
3597;SDS011;1813;52.016;8.714;2023-05-03T15:53:07;13.00;;;4.23;;
3597;SDS011;1813;52.016;8.714;2023-05-03T15:55:40;9.40;;;4.67;;
3597;SDS011;1813;52.016;8.714;2023-05-03T15:58:17;9.57;;;4.77;;
3597;SDS011;1813;52.016;8.714;2023-05-03T16:00:50;11.30;;;4.43;;
3597;SDS011;1813;52.016;8.714;2023-05-03T16:03:27;13.10;;;4.30;;
3597;SDS011;1813;52.016;8.714;2023-05-03T16:06:12;12.70;;;4.67;;
3597;SDS011;1813;52.016;8.714;2023-05-03T16:08:49;9.60;;;4.50;;
3597;SDS011;1813;52.016;8.714;2023-05-03T16:11:23;8.57;;;4.40;;
3597;SDS011;1813;52.016;8.714;2023-05-03T16:13:57;9.40;;;5.17;;
3597;SDS011;1813;52.016;8.714;2023-05-03T16:16:30;8.40;;;4.83;;
3597;SDS011;1813;52.016;8.714;2023-05-03T16:19:07;8.93;;;4.90;;
3597;SDS011;1813;52.016;8.714;2023-05-03T16:21:42;13.10;;;4.67;;